Fernandopolis, Brazil
Current Conditions -  °F | °C
As of 3:00 AM on Tuesday 27 Jan 2015 (Local Time) from SBSR Reporting Station
Light Rain Light Rain  
Wind Chill: 72°   Ceiling: 8000
Heat Index: 72°   Visibility: 1.8mi
Dew Point: 66°   Wind: 7mph
Humidity: 83%   Direction: 50°NE
Pressure: NA   Gusts: NA
Location:  20.27°S, 50.26°W
Report Text: SBSR 270500Z 05006KT 3000 -RA BR SCT008 SCT017 OVC080 22/19 Q1016
Loading
Personal Weather Stations






























Interactive Weather Map New forecast layout! Learn more

10-Day Weather Forecast

Advertisements
Track Severe Weather on mobile